createdAt,value
2022-12-01T00:00:22.710Z,109.47
2022-12-01T00:02:49.230Z,99.05
2022-12-01T00:05:15.752Z,114.68
2022-12-01T00:07:42.220Z,108.13
2022-12-01T00:10:26.064Z,104.03
2022-12-01T00:12:57.993Z,104.43
2022-12-01T00:15:35.536Z,119.60
2022-12-01T00:18:03.378Z,105.05
2022-12-01T00:20:30.125Z,116.78
2022-12-01T00:22:56.476Z,109.65
2022-12-01T00:25:22.889Z,106.97
2022-12-01T00:27:50.642Z,137.23
2022-12-01T00:30:17.909Z,147.57
2022-12-01T00:32:44.556Z,153.48
2022-12-01T00:35:11.289Z,160.35
2022-12-01T00:37:37.690Z,158.80
2022-12-01T00:40:05.205Z,174.63
2022-12-01T00:42:31.724Z,185.55
2022-12-01T00:44:58.139Z,157.90
2022-12-01T00:47:24.551Z,154.75
2022-12-01T00:49:52.299Z,196.82
2022-12-01T00:52:19.575Z,180.10
2022-12-01T00:54:46.674Z,242.90
2022-12-01T00:57:13.616Z,261.48
2022-12-01T00:59:40.063Z,163.35
2022-12-01T01:02:07.517Z,227.00
2022-12-01T01:04:35.435Z,170.02
2022-12-01T01:07:02.045Z,254.23
2022-12-01T01:09:28.479Z,230.95
2022-12-01T01:11:55.174Z,216.82
2022-12-01T01:14:22.184Z,263.42
2022-12-01T01:16:49.782Z,205.23
2022-12-01T01:19:17.410Z,240.32
2022-12-01T01:21:43.843Z,247.18
2022-12-01T01:24:10.379Z,289.92
2022-12-01T01:26:37.865Z,250.40
2022-12-01T01:29:07.532Z,249.27
2022-12-01T01:31:34.328Z,347.88
2022-12-01T01:34:00.803Z,327.30
2022-12-01T01:36:27.417Z,353.27
2022-12-01T01:38:55.221Z,439.67
2022-12-01T01:41:22.142Z,387.63
2022-12-01T01:44:00.101Z,442.55
2022-12-01T01:46:28.541Z,325.27
2022-12-01T01:49:01.690Z,260.98
2022-12-01T01:51:51.355Z,403.73
2022-12-01T01:54:23.957Z,454.52
2022-12-01T01:59:23.656Z,276.98
2022-12-01T02:01:55.284Z,207.90
2022-12-01T02:04:23.279Z,197.67
2022-12-01T02:06:49.747Z,243.40
2022-12-01T02:09:16.204Z,199.70
2022-12-01T02:11:57.738Z,195.52
2022-12-01T02:14:49.624Z,211.60
2022-12-01T02:17:38.838Z,227.27
2022-12-01T02:20:26.237Z,194.98
2022-12-01T02:23:10.863Z,212.77
2022-12-01T02:25:58.571Z,262.67
2022-12-01T02:29:06.718Z,310.90
2022-12-01T02:31:40.146Z,286.30
2022-12-01T02:34:25.525Z,226.45
2022-12-01T02:37:00.842Z,211.02
2022-12-01T02:39:29.321Z,196.63
2022-12-01T02:42:03.861Z,186.68
2022-12-01T02:44:42.349Z,171.50
2022-12-01T02:47:12.193Z,177.68
2022-12-01T02:49:45.556Z,159.50
2022-12-01T02:52:14.089Z,175.60
2022-12-01T02:54:41.281Z,147.38
2022-12-01T02:57:12.516Z,172.52
2022-12-01T02:59:42.272Z,148.25
2022-12-01T03:02:29.137Z,140.77
2022-12-01T03:05:22.578Z,151.18
2022-12-01T03:08:02.020Z,161.02
2022-12-01T03:10:48.817Z,151.02
2022-12-01T03:13:46.220Z,154.90
2022-12-01T03:16:18.184Z,150.38
2022-12-01T03:18:53.258Z,144.43
2022-12-01T03:21:22.089Z,148.98
2022-12-01T03:23:54.304Z,158.27
2022-12-01T03:26:22.601Z,192.48
2022-12-01T03:28:52.681Z,162.90
2022-12-01T03:31:20.954Z,205.63
2022-12-01T03:33:51.426Z,189.27
2022-12-01T03:36:26.096Z,224.27
2022-12-01T03:38:57.129Z,225.63
2022-12-01T03:41:28.265Z,266.70
2022-12-01T03:44:06.420Z,261.23
2022-12-01T03:46:44.633Z,260.23
2022-12-01T03:49:11.232Z,274.38
2022-12-01T03:51:49.807Z,273.55
2022-12-01T03:54:33.859Z,272.25
2022-12-01T03:57:04.216Z,272.17
2022-12-01T03:59:30.854Z,274.05
2022-12-01T04:01:57.686Z,278.38
2022-12-01T04:04:24.138Z,289.83
2022-12-01T04:06:51.107Z,263.35
2022-12-01T04:09:17.605Z,274.00
2022-12-01T04:12:02.730Z,271.50
2022-12-01T04:14:30.138Z,264.83
2022-12-01T04:16:56.586Z,264.23
2022-12-01T04:19:23.091Z,262.63
2022-12-01T04:21:49.457Z,249.20
2022-12-01T04:24:15.877Z,271.15
2022-12-01T04:26:43.372Z,243.63
2022-12-01T04:29:10.805Z,246.32
2022-12-01T04:31:37.671Z,248.88
2022-12-01T04:34:04.617Z,256.92
2022-12-01T04:36:32.188Z,249.55
2022-12-01T04:38:58.655Z,233.68
2022-12-01T04:41:25.075Z,248.38
2022-12-01T04:43:55.058Z,226.95
2022-12-01T04:46:22.166Z,227.77
2022-12-01T04:48:48.589Z,228.02
2022-12-01T04:51:15.017Z,222.30
2022-12-01T04:53:41.461Z,210.88
2022-12-01T04:56:08.058Z,210.35
2022-12-01T04:58:37.451Z,194.05
2022-12-01T05:01:06.842Z,195.45
2022-12-01T05:03:37.072Z,188.05
2022-12-01T05:06:13.012Z,183.40
2022-12-01T05:08:39.604Z,196.95
2022-12-01T05:11:07.899Z,178.98
2022-12-01T05:13:39.712Z,183.48
2022-12-01T05:16:12.252Z,130.40
2022-12-01T05:21:07.141Z,167.70
2022-12-01T05:23:34.801Z,161.55
2022-12-01T05:26:02.129Z,161.60
2022-12-01T05:28:28.829Z,169.70
2022-12-01T05:30:55.783Z,163.57
2022-12-01T05:33:23.382Z,155.00
2022-12-01T05:35:50.492Z,160.68
2022-12-01T05:38:17.238Z,152.50
2022-12-01T05:40:50.252Z,152.27
2022-12-01T05:43:16.695Z,156.60
2022-12-01T05:45:43.153Z,161.88
2022-12-01T05:48:09.721Z,156.23
2022-12-01T05:50:38.802Z,159.48
2022-12-01T05:53:05.864Z,156.55
2022-12-01T05:55:35.104Z,164.00
2022-12-01T05:58:01.992Z,157.77
2022-12-01T06:00:29.541Z,153.30
2022-12-01T06:02:56.131Z,155.32
2022-12-01T06:05:22.543Z,160.82
2022-12-01T06:07:48.952Z,151.90
2022-12-01T06:10:15.423Z,159.02
2022-12-01T06:12:41.820Z,159.15
2022-12-01T06:15:08.788Z,161.98
2022-12-01T06:17:39.951Z,156.05
2022-12-01T06:20:07.799Z,154.95
2022-12-01T06:22:34.268Z,157.88
2022-12-01T06:25:00.638Z,150.07
2022-12-01T06:27:27.062Z,167.18
2022-12-01T06:29:53.677Z,157.52
2022-12-01T06:32:20.342Z,165.82
2022-12-01T06:34:46.715Z,172.43
2022-12-01T06:37:15.559Z,169.20
2022-12-01T06:39:42.644Z,163.05
2022-12-01T06:42:09.128Z,162.35
2022-12-01T06:44:35.553Z,161.23
2022-12-01T06:47:01.998Z,168.60
2022-12-01T06:49:28.639Z,161.90
2022-12-01T06:51:55.063Z,158.25
2022-12-01T06:54:21.613Z,156.95
2022-12-01T06:56:47.986Z,157.18
2022-12-01T06:59:14.605Z,153.15
2022-12-01T07:01:41.439Z,153.05
2022-12-01T07:04:07.901Z,157.50
2022-12-01T07:06:34.393Z,142.82
2022-12-01T07:09:00.797Z,144.13
2022-12-01T07:11:27.218Z,140.70
2022-12-01T07:13:56.806Z,143.98
2022-12-01T07:16:26.360Z,147.13
2022-12-01T07:18:52.827Z,141.93
2022-12-01T07:21:19.321Z,134.60
2022-12-01T07:23:45.834Z,131.15
2022-12-01T07:26:15.005Z,128.20
2022-12-01T07:28:42.072Z,132.38
2022-12-01T07:31:10.423Z,133.45
2022-12-01T07:33:36.944Z,125.13
2022-12-01T07:36:04.225Z,130.93
2022-12-01T07:38:31.463Z,135.35
2022-12-01T07:41:14.765Z,134.80
2022-12-01T07:43:41.617Z,136.45
2022-12-01T07:46:10.599Z,140.60
2022-12-01T07:48:38.702Z,138.00
2022-12-01T07:51:06.662Z,147.93
2022-12-01T07:53:33.423Z,151.93
2022-12-01T07:56:04.374Z,153.70
2022-12-01T07:58:34.739Z,148.18
2022-12-01T08:01:09.476Z,151.50
2022-12-01T08:03:36.038Z,155.07
2022-12-01T08:06:03.175Z,166.60
2022-12-01T08:08:30.473Z,161.23
2022-12-01T08:11:00.944Z,167.80
2022-12-01T08:13:27.435Z,158.55
2022-12-01T08:15:54.221Z,167.05
2022-12-01T08:18:20.678Z,170.10
2022-12-01T08:20:47.074Z,181.70
2022-12-01T08:23:13.468Z,163.25
2022-12-01T08:25:39.937Z,168.68
2022-12-01T08:28:06.533Z,188.00
2022-12-01T08:30:32.949Z,160.95
2022-12-01T08:32:59.463Z,161.88
2022-12-01T08:35:25.983Z,164.55
2022-12-01T08:37:53.526Z,163.52
2022-12-01T08:40:20.819Z,165.48
2022-12-01T08:42:47.441Z,179.73
2022-12-01T08:45:14.290Z,165.05
2022-12-01T08:47:40.749Z,168.70
2022-12-01T08:50:08.148Z,158.68
2022-12-01T08:52:35.074Z,165.80
2022-12-01T08:55:01.988Z,160.27
2022-12-01T08:57:31.968Z,160.88
2022-12-01T08:59:58.438Z,166.65
2022-12-01T09:02:25.348Z,161.02
2022-12-01T09:04:51.891Z,161.60
2022-12-01T09:07:24.599Z,146.38
2022-12-01T09:09:52.907Z,148.00
2022-12-01T09:12:19.559Z,150.00
2022-12-01T09:14:48.128Z,147.48
2022-12-01T09:17:15.201Z,134.20
2022-12-01T09:19:41.907Z,130.18
2022-12-01T09:22:08.757Z,118.57
2022-12-01T09:24:35.450Z,117.15
2022-12-01T09:27:03.375Z,105.70
2022-12-01T09:29:30.098Z,102.57
2022-12-01T09:31:57.241Z,106.32
2022-12-01T09:34:23.763Z,106.18
2022-12-01T09:36:50.502Z,104.68
2022-12-01T09:39:20.390Z,102.13
2022-12-01T09:42:09.121Z,95.55
2022-12-01T09:45:05.529Z,90.03
2022-12-01T09:47:34.897Z,87.90
2022-12-01T09:50:14.467Z,89.30
2022-12-01T09:52:43.578Z,88.22
2022-12-01T09:55:14.719Z,85.97
2022-12-01T09:57:41.749Z,80.25
2022-12-01T10:00:15.449Z,75.47
2022-12-01T10:03:05.929Z,78.25
2022-12-01T10:06:18.611Z,76.07
2022-12-01T10:08:37.102Z,78.57
2022-12-01T10:11:27.048Z,83.25
2022-12-01T10:13:53.533Z,84.65
2022-12-01T10:16:26.453Z,82.13
2022-12-01T10:18:58.707Z,82.15
2022-12-01T10:22:15.316Z,84.18
2022-12-01T10:25:12.760Z,82.88
2022-12-01T10:27:45.271Z,84.82
2022-12-01T10:32:53.585Z,82.95
2022-12-01T10:35:23.368Z,84.38
2022-12-01T10:37:58.017Z,91.10
2022-12-01T10:40:25.535Z,82.68
2022-12-01T10:42:52.151Z,82.68
2022-12-01T10:45:22.031Z,88.90
2022-12-01T10:48:08.818Z,90.85
2022-12-01T10:50:35.989Z,83.05
2022-12-01T10:53:03.111Z,89.15
2022-12-01T10:55:33.793Z,89.35
2022-12-01T10:58:09.100Z,84.50
2022-12-01T11:03:28.827Z,79.40
2022-12-01T11:06:00.828Z,83.78
2022-12-01T11:08:37.303Z,79.30
2022-12-01T11:11:03.845Z,72.53
2022-12-01T11:13:34.101Z,76.88
2022-12-01T11:16:03.028Z,73.13
2022-12-01T11:18:38.729Z,66.63
2022-12-01T11:21:27.203Z,72.97
2022-12-01T11:23:55.620Z,68.90
2022-12-01T11:26:28.433Z,70.00
2022-12-01T11:28:59.260Z,67.88
2022-12-01T11:31:47.686Z,65.50
2022-12-01T11:34:34.305Z,72.55
2022-12-01T11:37:03.736Z,71.88
2022-12-01T11:39:32.386Z,74.82
2022-12-01T11:42:27.065Z,72.25
2022-12-01T11:45:05.809Z,75.47
2022-12-01T11:47:32.370Z,72.45
2022-12-01T11:50:07.414Z,71.43
2022-12-01T11:52:36.939Z,74.57
2022-12-01T11:55:12.590Z,78.95
2022-12-01T11:57:41.702Z,81.07
2022-12-01T12:00:19.355Z,77.10
2022-12-01T12:03:01.819Z,72.97
2022-12-01T12:05:57.626Z,80.80
2022-12-01T12:08:59.577Z,81.35
2022-12-01T12:11:45.310Z,84.63
2022-12-01T12:14:17.752Z,79.00
2022-12-01T12:20:06.736Z,84.05
2022-12-01T12:22:43.712Z,86.53
2022-12-01T12:25:48.913Z,76.65
2022-12-01T12:28:52.626Z,77.15
2022-12-01T12:31:56.646Z,79.57
2022-12-01T12:34:37.248Z,80.95
2022-12-01T12:37:45.267Z,85.97
2022-12-01T12:40:33.853Z,94.35
2022-12-01T12:43:20.309Z,91.65
2022-12-01T12:46:11.310Z,94.45
2022-12-01T12:49:20.477Z,92.30
2022-12-01T12:51:52.988Z,88.78
2022-12-01T12:54:36.695Z,89.13
2022-12-01T12:57:26.879Z,96.05
2022-12-01T13:00:05.173Z,88.47
2022-12-01T13:02:45.316Z,92.97
2022-12-01T13:05:35.584Z,89.70
2022-12-01T13:08:31.281Z,93.03
2022-12-01T13:11:06.968Z,88.75
2022-12-01T13:13:46.508Z,87.28
2022-12-01T13:16:17.569Z,96.22
2022-12-01T13:18:48.299Z,91.93
2022-12-01T13:21:20.422Z,103.72
2022-12-01T13:23:48.447Z,105.75
2022-12-01T13:26:15.779Z,95.78
2022-12-01T13:28:51.385Z,96.20
2022-12-01T13:31:18.898Z,95.07
2022-12-01T13:34:05.214Z,96.82
2022-12-01T13:36:48.148Z,96.45
2022-12-01T13:39:19.777Z,96.13
2022-12-01T13:41:46.624Z,86.13
2022-12-01T13:44:30.560Z,92.07
2022-12-01T13:47:25.033Z,93.65
2022-12-01T13:49:52.718Z,91.35
2022-12-01T13:52:22.014Z,93.95
2022-12-01T13:55:24.774Z,90.00
2022-12-01T13:57:57.071Z,95.13
2022-12-01T14:00:34.612Z,90.40
2022-12-01T14:03:13.119Z,93.40
2022-12-01T14:05:39.588Z,88.35
2022-12-01T14:08:24.962Z,86.57
2022-12-01T14:11:00.831Z,93.43
2022-12-01T14:13:28.468Z,90.20
2022-12-01T14:16:00.217Z,90.05
2022-12-01T14:18:35.795Z,92.32
2022-12-01T14:21:05.399Z,90.63
2022-12-01T14:23:34.591Z,89.90
2022-12-01T14:26:17.196Z,89.50
2022-12-01T14:28:56.016Z,94.90
2022-12-01T14:31:23.917Z,87.70
2022-12-01T14:34:02.360Z,92.43
2022-12-01T14:36:42.240Z,88.60
2022-12-01T14:39:18.556Z,93.90
2022-12-01T14:41:48.034Z,90.05
2022-12-01T14:44:25.565Z,92.68
2022-12-01T14:47:10.542Z,91.38
2022-12-01T14:49:58.458Z,91.80
2022-12-01T14:52:27.845Z,95.75
2022-12-01T14:54:57.134Z,95.78
2022-12-01T14:57:28.666Z,93.68
2022-12-01T15:00:28.948Z,95.22
2022-12-01T15:03:14.048Z,95.15
2022-12-01T15:05:42.311Z,91.10
2022-12-01T15:08:41.059Z,93.18
2022-12-01T15:11:20.617Z,96.55
2022-12-01T15:13:53.006Z,94.22
2022-12-01T15:16:22.045Z,92.22
2022-12-01T15:18:49.242Z,97.80
2022-12-01T15:21:29.951Z,103.32
2022-12-01T15:24:04.439Z,100.95
2022-12-01T15:26:33.586Z,100.03
2022-12-01T15:29:22.723Z,100.57
2022-12-01T15:31:51.332Z,99.78
2022-12-01T15:34:21.374Z,100.30
2022-12-01T15:36:48.413Z,103.43
2022-12-01T15:39:21.112Z,94.82
2022-12-01T15:41:53.619Z,100.43
2022-12-01T15:46:53.423Z,96.43
2022-12-01T15:49:27.570Z,99.55
2022-12-01T15:51:54.123Z,102.00
2022-12-01T15:54:26.364Z,102.35
2022-12-01T15:56:58.493Z,105.68
2022-12-01T15:59:40.086Z,103.80
2022-12-01T16:02:24.835Z,108.25
2022-12-01T16:05:05.975Z,106.20
2022-12-01T16:08:10.804Z,105.85
2022-12-01T16:10:31.287Z,107.13
2022-12-01T16:13:35.217Z,113.32
2022-12-01T16:16:20.188Z,102.40
2022-12-01T16:18:58.925Z,108.97
2022-12-01T16:21:26.147Z,107.28
2022-12-01T16:24:00.637Z,98.60
2022-12-01T16:26:27.575Z,101.28
2022-12-01T16:28:54.948Z,104.80
2022-12-01T16:31:21.629Z,103.90
2022-12-01T16:33:48.170Z,109.75
2022-12-01T16:36:14.875Z,110.82
2022-12-01T16:38:41.543Z,102.88
2022-12-01T16:41:16.567Z,109.28
2022-12-01T16:43:54.465Z,108.43
2022-12-01T16:46:29.797Z,106.40
2022-12-01T16:48:56.342Z,109.40
2022-12-01T16:51:29.974Z,109.75
2022-12-01T16:54:09.584Z,102.65
2022-12-01T16:56:35.995Z,108.18
2022-12-01T16:59:02.436Z,116.15
2022-12-01T17:01:29.383Z,115.68
2022-12-01T17:03:56.102Z,103.50
2022-12-01T17:06:22.953Z,108.05
2022-12-01T17:08:49.455Z,115.20
2022-12-01T17:11:15.914Z,106.40
2022-12-01T17:13:42.313Z,103.57
2022-12-01T17:16:15.217Z,113.03
2022-12-01T17:18:44.427Z,115.85
2022-12-01T17:21:11.169Z,120.85
2022-12-01T17:23:38.859Z,120.45
2022-12-01T17:26:11.252Z,149.70
2022-12-01T17:28:38.487Z,128.15
2022-12-01T17:31:05.627Z,130.15
2022-12-01T17:33:32.652Z,131.50
2022-12-01T17:36:00.736Z,129.30
2022-12-01T17:38:27.171Z,134.13
2022-12-01T17:41:11.568Z,139.32
2022-12-01T17:43:39.044Z,145.98
2022-12-01T17:46:07.534Z,133.23
2022-12-01T17:48:40.304Z,139.52
2022-12-01T17:51:08.846Z,147.95
2022-12-01T17:53:35.703Z,147.38
2022-12-01T17:56:02.582Z,145.48
2022-12-01T17:58:30.142Z,134.68
2022-12-01T18:00:56.558Z,131.88
2022-12-01T18:03:23.097Z,147.32
2022-12-01T18:05:57.196Z,137.30
2022-12-01T18:08:25.333Z,155.02
2022-12-01T18:10:52.019Z,153.85
2022-12-01T18:13:20.338Z,157.18
2022-12-01T18:15:48.129Z,150.82
2022-12-01T18:18:14.529Z,153.57
2022-12-01T18:20:42.467Z,168.25
2022-12-01T18:23:09.803Z,156.48
2022-12-01T18:25:37.094Z,162.10
2022-12-01T18:28:04.434Z,172.52
2022-12-01T18:30:31.133Z,173.93
2022-12-01T18:32:59.468Z,168.40
2022-12-01T18:35:31.601Z,169.65
2022-12-01T18:40:24.741Z,181.48
2022-12-01T18:42:51.203Z,171.50
2022-12-01T18:45:21.276Z,172.30
2022-12-01T18:47:47.984Z,177.80
2022-12-01T18:50:14.456Z,170.18
2022-12-01T18:52:40.844Z,169.88
2022-12-01T18:55:07.660Z,169.55
2022-12-01T18:57:34.129Z,153.48
2022-12-01T19:00:00.599Z,161.45
2022-12-01T19:02:27.118Z,164.18
2022-12-01T19:04:53.577Z,163.88
2022-12-01T19:07:21.327Z,167.02
2022-12-01T19:09:50.700Z,153.30
2022-12-01T19:12:17.358Z,154.98
2022-12-01T19:14:43.752Z,163.73
2022-12-01T19:17:10.165Z,156.68
2022-12-01T19:19:37.780Z,156.98
2022-12-01T19:22:04.387Z,147.82
2022-12-01T19:24:30.946Z,157.30
2022-12-01T19:26:57.331Z,142.65
2022-12-01T19:29:23.833Z,146.18
2022-12-01T19:31:50.260Z,158.43
2022-12-01T19:34:16.710Z,146.27
2022-12-01T19:36:43.174Z,160.20
2022-12-01T19:39:09.760Z,148.85
2022-12-01T19:41:36.180Z,143.10
2022-12-01T19:44:02.804Z,157.52
2022-12-01T19:46:29.330Z,154.82
2022-12-01T19:48:57.895Z,155.35
2022-12-01T19:51:27.208Z,162.07
2022-12-01T19:53:53.984Z,158.55
2022-12-01T19:56:20.793Z,170.82
2022-12-01T19:58:47.299Z,161.57
2022-12-01T20:01:15.585Z,157.48
2022-12-01T20:03:45.076Z,150.00
2022-12-01T20:06:16.291Z,150.07
2022-12-01T20:08:43.381Z,146.93
2022-12-01T20:11:10.441Z,151.35
2022-12-01T20:13:39.139Z,162.77
2022-12-01T20:16:13.788Z,162.13
2022-12-01T20:18:41.557Z,157.10
2022-12-01T20:21:16.418Z,166.52
2022-12-01T20:23:44.484Z,155.20
2022-12-01T20:26:11.370Z,161.82
2022-12-01T20:28:39.148Z,150.07
2022-12-01T20:31:12.184Z,156.52
2022-12-01T20:33:39.738Z,152.15
2022-12-01T20:36:07.695Z,156.82
2022-12-01T20:38:35.008Z,157.90
2022-12-01T20:41:01.511Z,165.10
2022-12-01T20:43:28.675Z,181.68
2022-12-01T20:45:55.304Z,165.57
2022-12-01T20:48:22.173Z,175.20
2022-12-01T20:50:48.607Z,175.05
2022-12-01T20:53:15.235Z,174.82
2022-12-01T20:55:41.756Z,165.80
2022-12-01T20:58:11.229Z,175.18
2022-12-01T21:00:40.496Z,187.48
2022-12-01T21:03:07.089Z,166.63
2022-12-01T21:05:33.587Z,168.25
2022-12-01T21:08:00.980Z,182.75
2022-12-01T21:10:27.989Z,182.30
2022-12-01T21:13:16.976Z,177.55
2022-12-01T21:15:56.323Z,180.55
2022-12-01T21:18:49.540Z,186.18
2022-12-01T21:21:27.418Z,169.00
2022-12-01T21:24:08.579Z,179.43
2022-12-01T21:26:40.898Z,185.13
2022-12-01T21:29:17.343Z,188.73
2022-12-01T21:31:44.680Z,191.80
2022-12-01T21:34:18.636Z,194.82
2022-12-01T21:36:46.577Z,204.90
2022-12-01T21:39:15.734Z,216.43
2022-12-01T21:41:42.144Z,195.10
2022-12-01T21:44:17.427Z,199.20
2022-12-01T21:46:44.547Z,198.88
2022-12-01T21:49:22.736Z,193.80
2022-12-01T21:51:50.802Z,201.73
2022-12-01T21:54:21.497Z,225.52
2022-12-01T21:56:49.174Z,199.68
2022-12-01T21:59:19.568Z,196.43
2022-12-01T22:01:46.916Z,194.32
2022-12-01T22:04:20.447Z,202.18
2022-12-01T22:06:49.904Z,207.90
2022-12-01T22:09:29.858Z,208.63
2022-12-01T22:12:24.594Z,198.95
2022-12-01T22:14:51.210Z,188.88
2022-12-01T22:17:22.396Z,193.10
2022-12-01T22:19:56.358Z,207.75
2022-12-01T22:22:25.177Z,197.40
2022-12-01T22:24:54.197Z,206.48
2022-12-01T22:27:38.300Z,197.43
2022-12-01T22:30:07.791Z,223.15
2022-12-01T22:32:42.244Z,208.48
2022-12-01T22:35:23.932Z,218.77
2022-12-01T22:37:58.122Z,201.98
2022-12-01T22:40:59.975Z,218.90
2022-12-01T22:43:28.810Z,207.38
2022-12-01T22:46:07.396Z,189.80
2022-12-01T22:48:35.468Z,191.93
2022-12-01T22:51:10.936Z,207.35
2022-12-01T22:53:37.378Z,215.93
2022-12-01T22:56:17.955Z,201.70
2022-12-01T22:58:44.342Z,221.57
2022-12-01T23:01:20.768Z,215.68
2022-12-01T23:03:48.742Z,195.68
2022-12-01T23:06:47.022Z,220.77
2022-12-01T23:09:14.357Z,211.95
2022-12-01T23:11:44.354Z,198.95
2022-12-01T23:14:15.752Z,192.18
2022-12-01T23:16:42.177Z,197.30
2022-12-01T23:19:09.626Z,194.05
2022-12-01T23:21:36.620Z,194.32
2022-12-01T23:24:04.688Z,185.48
2022-12-01T23:26:31.600Z,193.98
2022-12-01T23:28:59.018Z,209.13
2022-12-01T23:31:26.710Z,175.23
2022-12-01T23:33:53.422Z,185.90
2022-12-01T23:36:25.055Z,193.85
2022-12-01T23:38:53.153Z,181.97
2022-12-01T23:41:26.044Z,181.80
2022-12-01T23:43:53.904Z,169.52
2022-12-01T23:46:24.581Z,180.65
2022-12-01T23:48:54.218Z,169.75
2022-12-01T23:51:23.956Z,182.13
2022-12-01T23:53:51.832Z,159.45
2022-12-01T23:56:23.642Z,178.23
2022-12-01T23:58:51.212Z,176.15
